createdAt,value
2017-10-14T00:01:39.183Z,82.40
2017-10-14T00:04:06.711Z,82.80
2017-10-14T00:06:35.007Z,82.80
2017-10-14T00:09:02.567Z,82.70
2017-10-14T00:11:30.107Z,82.60
2017-10-14T00:13:57.635Z,82.40
2017-10-14T00:16:25.219Z,82.60
2017-10-14T00:18:52.752Z,82.70
2017-10-14T00:21:20.283Z,82.80
2017-10-14T00:23:47.835Z,83.00
2017-10-14T00:26:17.222Z,83.30
2017-10-14T00:28:44.756Z,82.80
2017-10-14T00:31:12.554Z,82.70
2017-10-14T00:33:40.095Z,82.70
2017-10-14T00:36:08.391Z,82.80
2017-10-14T00:38:35.974Z,82.80
2017-10-14T00:41:03.520Z,82.90
2017-10-14T00:43:31.059Z,82.70
2017-10-14T00:45:58.619Z,82.70
2017-10-14T00:48:26.200Z,82.80
2017-10-14T00:50:53.740Z,82.50
2017-10-14T00:53:21.316Z,82.70
2017-10-14T00:55:48.847Z,82.70
2017-10-14T00:58:16.480Z,82.70
2017-10-14T01:00:44.079Z,82.50
2017-10-14T01:03:11.607Z,82.80
2017-10-14T01:05:39.144Z,82.80
2017-10-14T01:08:06.703Z,82.80
2017-10-14T01:10:34.245Z,82.70
2017-10-14T01:13:01.771Z,82.70
2017-10-14T01:15:29.332Z,82.60
2017-10-14T01:17:57.639Z,82.90
2017-10-14T01:20:25.177Z,82.90
2017-10-14T01:22:53.539Z,82.90
2017-10-14T01:25:21.844Z,83.00
2017-10-14T01:27:49.387Z,83.00
2017-10-14T01:30:17.719Z,83.60
2017-10-14T01:32:45.247Z,83.60
2017-10-14T01:35:12.783Z,83.70
2017-10-14T01:37:40.365Z,84.00
2017-10-14T01:40:07.902Z,84.20
2017-10-14T01:42:36.256Z,84.50
2017-10-14T01:45:03.844Z,84.50
2017-10-14T01:47:31.408Z,84.50
2017-10-14T01:49:58.944Z,84.40
2017-10-14T01:52:27.279Z,84.80
2017-10-14T01:54:54.816Z,84.70
2017-10-14T01:57:22.388Z,84.70
2017-10-14T01:59:49.967Z,84.60
2017-10-14T02:02:17.503Z,84.20
2017-10-14T02:04:45.040Z,84.40
2017-10-14T02:07:12.645Z,84.20
2017-10-14T02:09:40.187Z,84.30
2017-10-14T02:12:07.738Z,84.00
2017-10-14T02:14:35.340Z,83.90
2017-10-14T02:17:02.880Z,84.10
2017-10-14T02:19:30.468Z,84.10
2017-10-14T02:21:58.023Z,84.10
2017-10-14T02:24:25.572Z,84.20
2017-10-14T02:26:53.103Z,84.10
2017-10-14T02:29:20.703Z,83.40
2017-10-14T02:31:48.242Z,83.90
2017-10-14T02:34:16.592Z,83.60
2017-10-14T02:36:44.155Z,83.80
2017-10-14T02:39:11.687Z,83.70
2017-10-14T02:41:39.223Z,83.70
2017-10-14T02:44:06.801Z,83.90
2017-10-14T02:46:34.332Z,83.60
2017-10-14T02:49:01.915Z,83.70
2017-10-14T02:51:29.544Z,83.30
2017-10-14T02:53:57.083Z,83.40
2017-10-14T02:56:24.623Z,83.70
2017-10-14T02:58:52.947Z,83.20
2017-10-14T03:01:20.487Z,83.20
2017-10-14T03:03:48.019Z,83.20
2017-10-14T03:06:16.528Z,83.70
2017-10-14T03:08:44.063Z,84.10
2017-10-14T03:11:11.605Z,84.10
2017-10-14T03:13:39.984Z,84.30
2017-10-14T03:16:07.544Z,84.30
2017-10-14T03:18:35.078Z,83.60
2017-10-14T03:21:02.639Z,83.80
2017-10-14T03:23:30.180Z,83.80
2017-10-14T03:25:57.711Z,83.20
2017-10-14T03:28:25.267Z,83.60
2017-10-14T03:30:52.853Z,83.40
2017-10-14T03:33:20.396Z,83.80
2017-10-14T03:35:48.648Z,83.70
2017-10-14T03:38:16.414Z,83.50
2017-10-14T03:40:43.948Z,83.20
2017-10-14T03:43:11.525Z,83.20
2017-10-14T03:45:39.828Z,83.50
2017-10-14T03:48:07.370Z,83.40
2017-10-14T03:50:35.704Z,83.40
2017-10-14T03:53:03.232Z,83.40
2017-10-14T03:55:30.768Z,83.40
2017-10-14T03:57:58.351Z,83.20
2017-10-14T04:00:25.890Z,83.30
2017-10-14T04:02:54.187Z,83.30
2017-10-14T04:05:21.745Z,83.30
2017-10-14T04:07:49.277Z,83.50
2017-10-14T04:10:17.578Z,83.20
2017-10-14T04:12:45.156Z,83.20
2017-10-14T04:15:13.620Z,83.20
2017-10-14T04:17:41.157Z,83.20
2017-10-14T04:20:09.504Z,82.70
2017-10-14T04:22:37.052Z,82.70
2017-10-14T04:25:04.583Z,82.70
2017-10-14T04:27:32.155Z,83.00
2017-10-14T04:29:59.692Z,83.20
2017-10-14T04:32:27.230Z,83.30
2017-10-14T04:34:54.794Z,83.50
2017-10-14T04:37:22.524Z,83.50
2017-10-14T04:39:50.052Z,83.50
2017-10-14T04:42:17.635Z,83.40
2017-10-14T04:44:45.180Z,83.40
2017-10-14T04:47:13.718Z,83.60
2017-10-14T04:49:42.056Z,83.60
2017-10-14T04:52:09.593Z,83.60
2017-10-14T04:54:37.126Z,83.60
2017-10-14T04:57:04.695Z,83.40
2017-10-14T04:59:32.227Z,83.50
2017-10-14T05:01:59.764Z,83.50
2017-10-14T05:04:27.355Z,83.30
2017-10-14T05:06:54.896Z,84.40
2017-10-14T05:09:22.431Z,84.50
2017-10-14T05:11:49.983Z,84.80
2017-10-14T05:14:20.207Z,85.20
2017-10-14T05:16:47.870Z,85.10
2017-10-14T05:19:16.364Z,85.10
2017-10-14T05:21:43.966Z,85.10
2017-10-14T05:24:12.454Z,84.50
2017-10-14T05:26:40.076Z,84.50
2017-10-14T05:29:07.680Z,84.50
2017-10-14T05:31:35.326Z,85.40
2017-10-14T05:34:03.000Z,84.80
2017-10-14T05:36:30.543Z,84.90
2017-10-14T05:38:58.563Z,85.10
2017-10-14T05:41:26.891Z,85.20
2017-10-14T05:43:54.423Z,85.00
2017-10-14T05:46:22.128Z,85.10
2017-10-14T05:48:50.495Z,85.80
2017-10-14T05:51:18.151Z,85.70
2017-10-14T05:53:45.808Z,86.10
2017-10-14T05:56:23.803Z,85.80
2017-10-14T06:01:07.453Z,85.70
2017-10-14T06:03:35.016Z,85.70
2017-10-14T06:06:02.644Z,85.60
2017-10-14T06:08:30.169Z,85.60
2017-10-14T06:13:52.171Z,85.40
2017-10-14T06:16:19.748Z,85.20
2017-10-14T06:19:00.638Z,84.90
2017-10-14T06:21:28.199Z,84.60
2017-10-14T06:23:56.622Z,84.50
2017-10-14T06:26:25.064Z,84.00
2017-10-14T06:28:52.727Z,84.00
2017-10-14T06:31:24.303Z,85.30
2017-10-14T06:33:51.850Z,84.80
2017-10-14T06:36:20.960Z,84.80
2017-10-14T06:38:48.499Z,85.30
2017-10-14T06:41:17.500Z,86.20
2017-10-14T06:43:45.844Z,86.20
2017-10-14T06:46:24.635Z,86.20
2017-10-14T06:51:26.120Z,86.70
2017-10-14T06:53:53.647Z,86.50
2017-10-14T06:56:21.437Z,86.50
2017-10-14T06:58:49.089Z,86.60
2017-10-14T07:01:16.693Z,87.10
2017-10-14T07:03:44.269Z,87.10
2017-10-14T07:06:13.055Z,87.40
2017-10-14T07:08:50.002Z,87.40
2017-10-14T07:11:18.466Z,88.70
2017-10-14T07:14:06.829Z,88.70
2017-10-14T07:16:34.407Z,88.40
2017-10-14T07:19:02.004Z,88.20
2017-10-14T07:21:30.317Z,87.20
2017-10-14T07:23:57.960Z,87.20
2017-10-14T07:26:26.303Z,86.80
2017-10-14T07:28:53.844Z,86.80
2017-10-14T07:31:21.485Z,83.80
2017-10-14T07:33:49.096Z,76.30
2017-10-14T07:36:16.631Z,70.40
2017-10-14T07:38:44.212Z,63.10
2017-10-14T07:41:11.752Z,57.30
2017-10-14T07:43:39.575Z,56.70
2017-10-14T07:46:07.180Z,51.50
2017-10-14T07:48:34.963Z,45.80
2017-10-14T07:51:02.543Z,43.90
2017-10-14T07:53:30.304Z,42.60
2017-10-14T07:55:57.843Z,40.40
2017-10-14T07:58:26.227Z,38.10
2017-10-14T08:00:54.629Z,36.60
2017-10-14T08:03:22.353Z,36.40
2017-10-14T08:05:49.952Z,35.90
2017-10-14T08:08:17.539Z,34.50
2017-10-14T08:10:45.092Z,34.60
2017-10-14T08:13:13.579Z,33.40
2017-10-14T08:15:41.193Z,32.50
2017-10-14T08:18:09.500Z,33.10
2017-10-14T08:20:37.066Z,33.00
2017-10-14T08:23:04.644Z,33.90
2017-10-14T08:25:32.219Z,34.50
2017-10-14T08:28:00.033Z,33.30
2017-10-14T08:30:27.615Z,33.20
2017-10-14T08:32:55.138Z,32.60
2017-10-14T08:35:23.456Z,30.80
2017-10-14T08:37:51.062Z,30.80
2017-10-14T08:40:18.605Z,30.20
2017-10-14T08:42:46.404Z,30.20
2017-10-14T08:45:17.144Z,28.90
2017-10-14T08:47:45.737Z,29.60
2017-10-14T08:50:24.615Z,29.50
2017-10-14T08:57:25.636Z,28.20
2017-10-14T08:59:53.282Z,28.50
2017-10-14T09:02:20.900Z,27.70
2017-10-14T09:04:48.476Z,27.90
2017-10-14T09:07:16.444Z,27.60
2017-10-14T09:09:44.092Z,27.60
2017-10-14T09:12:11.652Z,27.50
2017-10-14T09:14:40.204Z,26.80
2017-10-14T09:17:07.740Z,26.90
2017-10-14T09:19:35.431Z,27.00
2017-10-14T09:22:03.032Z,26.80
2017-10-14T09:24:30.595Z,26.30
2017-10-14T09:26:58.227Z,27.40
2017-10-14T09:29:29.354Z,27.70
2017-10-14T09:32:05.857Z,27.50
2017-10-14T09:34:33.687Z,27.20
2017-10-14T09:37:02.088Z,26.70
2017-10-14T09:39:29.671Z,26.70
2017-10-14T09:42:01.825Z,27.00
2017-10-14T09:44:30.455Z,27.50
2017-10-14T09:46:58.536Z,28.40
2017-10-14T09:49:26.151Z,29.20
2017-10-14T09:51:53.748Z,29.50
2017-10-14T09:54:21.340Z,29.80
2017-10-14T09:56:48.924Z,30.20
2017-10-14T09:59:16.606Z,31.90
2017-10-14T10:01:44.221Z,32.70
2017-10-14T10:04:13.009Z,33.70
2017-10-14T10:06:40.636Z,36.00
2017-10-14T10:09:08.187Z,37.00
2017-10-14T10:11:35.797Z,39.20
2017-10-14T10:14:03.452Z,41.10
2017-10-14T10:16:31.085Z,42.50
2017-10-14T10:18:58.737Z,43.90
2017-10-14T10:21:27.145Z,44.90
2017-10-14T10:23:54.805Z,44.70
2017-10-14T10:26:22.348Z,45.80
2017-10-14T10:28:49.940Z,47.20
2017-10-14T10:31:17.486Z,48.90
2017-10-14T10:33:45.805Z,50.30
2017-10-14T10:36:23.588Z,50.20
2017-10-14T10:43:29.755Z,51.30
2017-10-14T10:45:57.383Z,52.40
2017-10-14T10:48:26.920Z,53.30
2017-10-14T10:50:55.238Z,52.70
2017-10-14T10:53:22.773Z,52.70
2017-10-14T10:55:50.473Z,52.50
2017-10-14T10:58:18.041Z,52.50
2017-10-14T11:00:45.591Z,52.50
2017-10-14T11:03:24.451Z,53.60
2017-10-14T11:08:56.319Z,54.00
2017-10-14T11:11:23.848Z,54.00
2017-10-14T11:13:51.385Z,55.40
2017-10-14T11:16:18.963Z,55.50
2017-10-14T11:18:46.496Z,55.00
2017-10-14T11:21:15.476Z,53.90
2017-10-14T11:23:43.828Z,54.20
2017-10-14T11:26:11.363Z,54.20
2017-10-14T11:28:38.900Z,54.70
2017-10-14T11:31:06.462Z,55.10
2017-10-14T11:33:34.048Z,55.40
2017-10-14T11:36:01.576Z,55.10
2017-10-14T11:38:29.137Z,55.40
2017-10-14T11:40:56.721Z,55.00
2017-10-14T11:43:24.254Z,55.50
2017-10-14T11:45:51.847Z,55.70
2017-10-14T11:48:19.380Z,55.60
2017-10-14T11:50:47.079Z,54.70
2017-10-14T11:53:31.125Z,55.10
2017-10-14T12:00:52.219Z,55.10
2017-10-14T12:03:19.755Z,55.10
2017-10-14T12:05:47.321Z,55.70
2017-10-14T12:08:16.567Z,55.30
2017-10-14T12:10:44.096Z,55.40
2017-10-14T12:13:11.622Z,54.60
2017-10-14T12:15:39.192Z,54.20
2017-10-14T12:18:07.496Z,54.80
2017-10-14T12:20:35.031Z,54.80
2017-10-14T12:23:02.641Z,54.10
2017-10-14T12:25:30.182Z,54.10
2017-10-14T12:27:57.715Z,54.20
2017-10-14T12:30:26.045Z,53.00
2017-10-14T12:32:53.578Z,53.00
2017-10-14T12:35:21.146Z,52.90
2017-10-14T12:37:48.727Z,52.90
2017-10-14T12:40:16.828Z,52.90
2017-10-14T12:42:45.135Z,54.30
2017-10-14T12:45:13.646Z,54.20
2017-10-14T12:47:41.188Z,54.50
2017-10-14T12:50:08.724Z,55.20
2017-10-14T12:52:36.841Z,55.00
2017-10-14T12:55:04.383Z,55.10
2017-10-14T12:57:31.916Z,55.40
2017-10-14T12:59:59.485Z,55.60
2017-10-14T13:02:27.783Z,53.10
2017-10-14T13:04:55.315Z,53.10
2017-10-14T13:07:22.909Z,53.90
2017-10-14T13:09:50.449Z,53.90
2017-10-14T13:12:17.992Z,53.90
2017-10-14T13:14:45.576Z,55.50
2017-10-14T13:17:15.392Z,56.30
2017-10-14T13:19:42.928Z,56.30
2017-10-14T13:22:11.271Z,57.00
2017-10-14T13:24:38.804Z,57.00
2017-10-14T13:27:06.343Z,57.10
2017-10-14T13:29:34.223Z,57.70
2017-10-14T13:32:02.533Z,56.80
2017-10-14T13:34:30.148Z,56.80
2017-10-14T13:36:57.707Z,57.10
2017-10-14T13:39:25.318Z,58.20
2017-10-14T13:41:53.667Z,58.20
2017-10-14T13:44:22.003Z,55.60
2017-10-14T13:46:49.539Z,55.50
2017-10-14T13:49:17.075Z,56.30
2017-10-14T13:51:44.664Z,54.70
2017-10-14T13:54:12.587Z,52.90
2017-10-14T13:56:40.141Z,52.10
2017-10-14T13:59:07.700Z,57.30
2017-10-14T14:01:35.228Z,58.50
2017-10-14T14:04:03.543Z,57.50
2017-10-14T14:06:31.107Z,57.90
2017-10-14T14:08:58.801Z,58.30
2017-10-14T14:11:26.352Z,58.90
2017-10-14T14:13:53.947Z,59.10
2017-10-14T14:16:22.265Z,58.60
2017-10-14T14:18:49.799Z,58.50
2017-10-14T14:21:17.379Z,59.60
2017-10-14T14:23:44.971Z,59.50
2017-10-14T14:26:12.543Z,60.20
2017-10-14T14:28:40.178Z,59.40
2017-10-14T14:31:07.718Z,60.40
2017-10-14T14:33:36.128Z,61.00
2017-10-14T14:36:03.726Z,61.40
2017-10-14T14:38:32.057Z,61.00
2017-10-14T14:40:59.619Z,61.00
2017-10-14T14:43:27.198Z,61.00
2017-10-14T14:45:54.763Z,60.70
2017-10-14T14:48:22.380Z,61.30
2017-10-14T14:50:49.956Z,61.30
2017-10-14T14:53:17.517Z,61.50
2017-10-14T14:55:45.545Z,62.00
2017-10-14T14:58:24.822Z,61.70
2017-10-14T15:03:26.916Z,61.90
2017-10-14T15:05:54.459Z,62.50
2017-10-14T15:08:22.013Z,62.60
2017-10-14T15:10:49.584Z,62.50
2017-10-14T15:13:17.153Z,62.80
2017-10-14T15:15:44.715Z,63.40
2017-10-14T15:18:12.345Z,63.20
2017-10-14T15:20:39.921Z,63.20
2017-10-14T15:23:07.562Z,63.40
2017-10-14T15:25:35.139Z,63.50
2017-10-14T15:28:02.675Z,63.80
2017-10-14T15:30:30.980Z,64.10
2017-10-14T15:32:58.556Z,64.00
2017-10-14T15:35:26.088Z,64.10
2017-10-14T15:37:53.637Z,64.50
2017-10-14T15:40:21.238Z,65.20
2017-10-14T15:42:49.033Z,65.60
2017-10-14T15:45:16.586Z,66.20
2017-10-14T15:47:44.212Z,66.60
2017-10-14T15:50:11.789Z,67.10
2017-10-14T15:52:39.379Z,67.30
2017-10-14T15:55:07.723Z,67.40
2017-10-14T15:57:35.659Z,67.10
2017-10-14T16:00:03.192Z,67.10
2017-10-14T16:02:31.556Z,67.50
2017-10-14T16:04:59.096Z,67.50
2017-10-14T16:07:26.636Z,67.70
2017-10-14T16:09:54.202Z,68.10
2017-10-14T16:12:21.761Z,68.10
2017-10-14T16:14:49.308Z,68.50
2017-10-14T16:17:16.892Z,68.70
2017-10-14T16:19:44.441Z,68.90
2017-10-14T16:22:11.983Z,69.20
2017-10-14T16:24:39.624Z,69.50
2017-10-14T16:27:07.167Z,69.70
2017-10-14T16:29:35.485Z,70.30
2017-10-14T16:32:03.054Z,70.20
2017-10-14T16:34:30.616Z,70.30
2017-10-14T16:36:58.176Z,70.50
2017-10-14T16:39:25.827Z,70.70
2017-10-14T16:41:53.388Z,70.80
2017-10-14T16:44:20.928Z,71.00
2017-10-14T16:46:48.516Z,71.30
2017-10-14T16:49:16.407Z,71.60
2017-10-14T16:51:43.949Z,71.60
2017-10-14T16:54:11.521Z,71.70
2017-10-14T16:56:39.096Z,71.90
2017-10-14T16:59:07.056Z,70.70
2017-10-14T17:01:34.647Z,70.90
2017-10-14T17:04:02.956Z,70.70
2017-10-14T17:06:30.508Z,70.60
2017-10-14T17:08:58.100Z,70.80
2017-10-14T17:11:25.636Z,70.80
2017-10-14T17:13:53.189Z,70.90
2017-10-14T17:16:20.772Z,71.20
2017-10-14T17:18:48.316Z,72.00
2017-10-14T17:21:16.464Z,71.00
2017-10-14T17:23:44.791Z,71.60
2017-10-14T17:26:12.327Z,71.40
2017-10-14T17:28:39.865Z,71.30
2017-10-14T17:31:07.457Z,71.80
2017-10-14T17:33:35.757Z,71.60
2017-10-14T17:36:03.299Z,71.60
2017-10-14T17:38:31.628Z,71.60
2017-10-14T17:40:59.169Z,71.50
2017-10-14T17:43:26.732Z,71.70
2017-10-14T17:45:54.299Z,71.70
2017-10-14T17:48:21.832Z,71.70
2017-10-14T17:50:49.372Z,72.00
2017-10-14T17:53:16.981Z,72.00
2017-10-14T17:55:44.519Z,72.20
2017-10-14T17:58:12.804Z,72.30
2017-10-14T18:00:40.423Z,72.50
2017-10-14T18:03:09.050Z,72.90
2017-10-14T18:05:36.691Z,73.20
2017-10-14T18:08:06.104Z,73.40
2017-10-14T18:10:33.692Z,73.70
2017-10-14T18:13:02.024Z,74.00
2017-10-14T18:15:30.893Z,74.40
2017-10-14T18:17:58.544Z,74.40
2017-10-14T18:20:26.241Z,74.90
2017-10-14T18:22:53.896Z,75.00
2017-10-14T18:25:22.269Z,75.70
2017-10-14T18:27:49.821Z,75.50
2017-10-14T18:30:17.388Z,75.50
2017-10-14T18:32:45.726Z,75.90
2017-10-14T18:35:24.532Z,76.30
2017-10-14T18:40:20.881Z,76.50
2017-10-14T18:42:48.451Z,76.60
2017-10-14T18:45:17.296Z,77.20
2017-10-14T18:47:44.836Z,77.20
2017-10-14T18:50:12.775Z,77.10
2017-10-14T18:52:40.449Z,77.20
2017-10-14T18:55:08.020Z,77.50
2017-10-14T18:57:36.785Z,77.80
2017-10-14T19:00:05.782Z,78.20
2017-10-14T19:02:34.431Z,79.60
2017-10-14T19:05:01.994Z,78.90
2017-10-14T19:07:29.691Z,79.40
2017-10-14T19:09:58.003Z,79.50
2017-10-14T19:12:25.568Z,79.50
2017-10-14T19:14:53.172Z,79.70
2017-10-14T19:17:20.720Z,79.20
2017-10-14T19:19:48.509Z,78.90
2017-10-14T19:22:16.510Z,78.70
2017-10-14T19:24:44.056Z,78.60
2017-10-14T19:27:12.388Z,78.80
2017-10-14T19:29:39.932Z,78.80
2017-10-14T19:32:07.472Z,78.70
2017-10-14T19:34:35.068Z,78.40
2017-10-14T19:37:02.642Z,78.50
2017-10-14T19:39:30.299Z,79.00
2017-10-14T19:41:57.959Z,80.10
2017-10-14T19:44:25.519Z,79.40
2017-10-14T19:46:53.060Z,79.50
2017-10-14T19:49:20.642Z,79.50
2017-10-14T19:51:48.192Z,79.60
2017-10-14T19:54:16.507Z,79.70
2017-10-14T19:56:44.081Z,79.60
2017-10-14T19:59:12.462Z,80.20
2017-10-14T20:01:40.778Z,80.60
2017-10-14T20:04:08.673Z,80.40
2017-10-14T20:06:36.288Z,80.60
2017-10-14T20:09:03.889Z,80.40
2017-10-14T20:11:31.537Z,80.60
2017-10-14T20:13:59.077Z,80.50
2017-10-14T20:16:26.627Z,80.40
2017-10-14T20:18:54.284Z,81.00
2017-10-14T20:21:21.828Z,81.30
2017-10-14T20:23:50.296Z,80.90
2017-10-14T20:26:17.941Z,80.90
2017-10-14T20:28:45.481Z,80.90
2017-10-14T20:31:24.423Z,80.70
2017-10-14T20:36:26.264Z,80.50
2017-10-14T20:38:54.081Z,81.20
2017-10-14T20:41:21.697Z,81.40
2017-10-14T20:43:49.304Z,81.30
2017-10-14T20:46:16.996Z,81.30
2017-10-14T20:48:44.572Z,81.20
2017-10-14T20:51:12.184Z,81.20
2017-10-14T20:53:39.727Z,81.40
2017-10-14T20:56:07.289Z,82.00
2017-10-14T20:58:34.933Z,82.20
2017-10-14T21:01:02.507Z,82.00
2017-10-14T21:03:30.852Z,82.00
2017-10-14T21:05:59.151Z,81.80
2017-10-14T21:08:26.727Z,81.90
2017-10-14T21:10:54.309Z,82.00
2017-10-14T21:13:21.880Z,81.80
2017-10-14T21:15:49.454Z,81.70
2017-10-14T21:18:17.104Z,81.80
2017-10-14T21:20:44.679Z,82.10
2017-10-14T21:23:13.908Z,82.00
2017-10-14T21:25:41.472Z,81.90
2017-10-14T21:28:09.068Z,82.00
2017-10-14T21:30:36.612Z,81.90
2017-10-14T21:33:04.147Z,81.60
2017-10-14T21:35:31.749Z,81.80
2017-10-14T21:38:00.136Z,81.70
2017-10-14T21:40:27.743Z,81.30
2017-10-14T21:42:55.320Z,80.90
2017-10-14T21:45:22.876Z,81.10
2017-10-14T21:47:50.417Z,81.40
2017-10-14T21:50:18.017Z,81.40
2017-10-14T21:52:45.551Z,81.60
2017-10-14T21:55:14.619Z,81.80
2017-10-14T21:57:42.218Z,81.90
2017-10-14T22:00:09.760Z,82.00
2017-10-14T22:02:37.303Z,81.90
2017-10-14T22:05:04.872Z,82.00
2017-10-14T22:07:32.547Z,81.80
2017-10-14T22:10:00.148Z,81.70
2017-10-14T22:12:27.740Z,81.70
2017-10-14T22:14:55.276Z,81.40
2017-10-14T22:17:30.640Z,81.50
2017-10-14T22:19:58.208Z,81.50
2017-10-14T22:22:25.801Z,81.60
2017-10-14T22:24:53.395Z,81.50
2017-10-14T22:27:20.932Z,81.70
2017-10-14T22:29:48.487Z,81.60
2017-10-14T22:32:16.568Z,81.50
2017-10-14T22:34:44.110Z,81.70
2017-10-14T22:37:11.656Z,81.60
2017-10-14T22:39:39.233Z,82.30
2017-10-14T22:42:07.182Z,81.70
2017-10-14T22:44:34.728Z,81.80
2017-10-14T22:47:02.291Z,81.70
2017-10-14T22:49:29.827Z,81.50
2017-10-14T22:51:57.368Z,81.60
2017-10-14T22:54:24.951Z,81.60
2017-10-14T22:56:53.260Z,82.20
2017-10-14T22:59:20.804Z,82.10
2017-10-14T23:01:48.381Z,82.30
2017-10-14T23:04:16.415Z,82.30
2017-10-14T23:06:43.960Z,82.20
2017-10-14T23:09:11.670Z,82.40
2017-10-14T23:11:39.221Z,82.00
2017-10-14T23:14:06.761Z,82.30
2017-10-14T23:16:35.131Z,81.90
2017-10-14T23:19:03.453Z,81.90
2017-10-14T23:21:31.759Z,82.00
2017-10-14T23:23:59.333Z,82.00
2017-10-14T23:26:26.872Z,82.10
2017-10-14T23:28:54.412Z,82.30
2017-10-14T23:31:21.975Z,82.30
2017-10-14T23:33:49.515Z,82.20
2017-10-14T23:36:17.062Z,82.50
2017-10-14T23:38:44.671Z,82.40
2017-10-14T23:41:12.211Z,82.30
2017-10-14T23:43:39.748Z,83.30
2017-10-14T23:46:07.320Z,83.40
2017-10-14T23:48:35.641Z,83.00
2017-10-14T23:51:03.184Z,83.00
2017-10-14T23:53:30.752Z,82.50
2017-10-14T23:55:58.292Z,82.70
2017-10-14T23:58:25.832Z,82.70
